createdAt,value
2022-09-12T00:00:59.169Z,13.92
2022-09-12T00:01:59.111Z,13.95
2022-09-12T00:02:59.088Z,14.10
2022-09-12T00:03:59.088Z,13.90
2022-09-12T00:04:59.091Z,13.90
2022-09-12T00:05:59.114Z,13.96
2022-09-12T00:06:59.090Z,13.93
2022-09-12T00:07:59.084Z,13.95
2022-09-12T00:08:59.098Z,13.89
2022-09-12T00:09:59.085Z,13.87
2022-09-12T00:10:59.096Z,13.87
2022-09-12T00:11:59.081Z,13.81
2022-09-12T00:12:59.094Z,13.77
2022-09-12T00:13:59.082Z,13.78
2022-09-12T00:14:59.080Z,13.71
2022-09-12T00:15:59.079Z,13.79
2022-09-12T00:16:59.081Z,13.70
2022-09-12T00:17:59.084Z,13.74
2022-09-12T00:18:59.253Z,13.78
2022-09-12T00:19:59.091Z,13.67
2022-09-12T00:20:59.082Z,13.62
2022-09-12T00:21:59.093Z,13.62
2022-09-12T00:22:59.078Z,13.68
2022-09-12T00:23:59.078Z,13.57
2022-09-12T00:24:59.076Z,13.63
2022-09-12T00:25:59.074Z,13.50
2022-09-12T00:26:59.080Z,13.50
2022-09-12T00:27:59.073Z,13.47
2022-09-12T00:28:59.074Z,13.42
2022-09-12T00:29:59.070Z,13.42
2022-09-12T00:30:59.073Z,13.38
2022-09-12T00:31:59.122Z,13.35
2022-09-12T00:32:59.071Z,13.33
2022-09-12T00:33:59.069Z,13.28
2022-09-12T00:34:59.077Z,13.33
2022-09-12T00:35:59.070Z,13.23
2022-09-12T00:36:59.071Z,13.31
2022-09-12T00:37:59.083Z,13.35
2022-09-12T00:38:59.077Z,13.37
2022-09-12T00:39:59.125Z,13.37
2022-09-12T00:40:59.073Z,13.38
2022-09-12T00:41:59.183Z,13.37
2022-09-12T00:42:59.065Z,13.44
2022-09-12T00:43:59.065Z,13.50
2022-09-12T00:44:59.070Z,13.57
2022-09-12T00:45:59.113Z,13.68
2022-09-12T00:46:59.060Z,13.56
2022-09-12T00:47:59.059Z,13.59
2022-09-12T00:48:59.057Z,13.52
2022-09-12T00:49:59.056Z,13.38
2022-09-12T00:50:59.062Z,13.38
2022-09-12T00:51:59.056Z,13.30
2022-09-12T00:52:59.055Z,13.35
2022-09-12T00:53:59.075Z,13.35
2022-09-12T00:54:59.054Z,13.35
2022-09-12T00:55:59.053Z,13.33
2022-09-12T00:56:59.051Z,13.37
2022-09-12T00:57:59.051Z,13.37
2022-09-12T00:58:59.050Z,13.44
2022-09-12T00:59:59.048Z,13.53
2022-09-12T01:00:59.163Z,13.70
2022-09-12T01:01:59.178Z,13.62
2022-09-12T01:02:59.049Z,13.62
2022-09-12T01:03:59.046Z,13.60
2022-09-12T01:04:59.049Z,13.65
2022-09-12T01:05:59.048Z,13.57
2022-09-12T01:06:59.048Z,13.57
2022-09-12T01:07:59.042Z,13.62
2022-09-12T01:08:59.046Z,13.56
2022-09-12T01:09:59.061Z,13.62
2022-09-12T01:10:59.044Z,13.60
2022-09-12T01:11:59.044Z,13.60
2022-09-12T01:12:59.041Z,13.75
2022-09-12T01:13:59.041Z,13.77
2022-09-12T01:14:59.041Z,13.75
2022-09-12T01:15:59.036Z,13.62
2022-09-12T01:16:59.039Z,13.65
2022-09-12T01:17:59.038Z,13.62
2022-09-12T01:18:59.036Z,13.59
2022-09-12T01:19:59.033Z,13.65
2022-09-12T01:20:59.036Z,13.60
2022-09-12T01:21:59.041Z,13.53
2022-09-12T01:22:59.037Z,13.44
2022-09-12T01:23:59.038Z,13.37
2022-09-12T01:24:59.034Z,13.27
2022-09-12T01:25:59.052Z,13.30
2022-09-12T01:26:59.029Z,13.20
2022-09-12T01:27:59.027Z,13.25
2022-09-12T01:28:59.028Z,13.30
2022-09-12T01:29:59.028Z,13.30
2022-09-12T01:30:59.032Z,13.37
2022-09-12T01:31:59.066Z,13.37
2022-09-12T01:32:59.027Z,13.49
2022-09-12T01:33:59.025Z,13.52
2022-09-12T01:34:59.028Z,13.54
2022-09-12T01:35:59.023Z,13.68
2022-09-12T01:36:59.032Z,13.60
2022-09-12T01:37:59.033Z,13.60
2022-09-12T01:38:59.023Z,13.77
2022-09-12T01:39:59.074Z,13.78
2022-09-12T01:40:59.022Z,13.78
2022-09-12T01:41:59.039Z,13.71
2022-09-12T01:42:59.026Z,13.59
2022-09-12T01:43:59.015Z,13.59
2022-09-12T01:44:59.017Z,13.59
2022-09-12T01:45:59.100Z,13.59
2022-09-12T01:46:59.018Z,13.53
2022-09-12T01:47:59.012Z,13.54
2022-09-12T01:48:59.013Z,13.53
2022-09-12T01:49:59.010Z,13.52
2022-09-12T01:50:59.011Z,13.50
2022-09-12T01:51:59.011Z,13.42
2022-09-12T01:52:59.012Z,13.27
2022-09-12T01:53:59.008Z,13.38
2022-09-12T01:54:59.008Z,13.16
2022-09-12T01:55:59.004Z,13.18
2022-09-12T01:56:59.006Z,13.12
2022-09-12T01:57:59.023Z,13.19
2022-09-12T01:58:59.007Z,13.12
2022-09-12T01:59:59.002Z,13.09
2022-09-12T02:00:59.057Z,13.04
2022-09-12T02:01:59.025Z,13.03
2022-09-12T02:02:59.004Z,12.94
2022-09-12T02:03:59.006Z,12.90
2022-09-12T02:04:58.998Z,12.85
2022-09-12T02:05:58.998Z,12.82
2022-09-12T02:06:58.999Z,12.79
2022-09-12T02:07:58.996Z,12.80
2022-09-12T02:08:58.998Z,12.79
2022-09-12T02:09:58.995Z,12.90
2022-09-12T02:10:58.996Z,12.80
2022-09-12T02:11:58.991Z,12.80
2022-09-12T02:12:58.992Z,12.82
2022-09-12T02:13:59.013Z,12.90
2022-09-12T02:14:58.992Z,12.94
2022-09-12T02:15:58.991Z,12.98
2022-09-12T02:16:58.992Z,12.98
2022-09-12T02:17:58.990Z,13.01
2022-09-12T02:18:58.987Z,12.98
2022-09-12T02:19:58.989Z,13.00
2022-09-12T02:20:58.986Z,12.95
2022-09-12T02:21:58.986Z,12.95
2022-09-12T02:22:58.988Z,12.93
2022-09-12T02:23:58.980Z,12.95
2022-09-12T02:24:58.985Z,12.91
2022-09-12T02:25:58.980Z,12.83
2022-09-12T02:26:58.983Z,12.83
2022-09-12T02:27:58.979Z,12.95
2022-09-12T02:28:58.981Z,12.86
2022-09-12T02:29:59.064Z,12.87
2022-09-12T02:30:59.050Z,12.90
2022-09-12T02:31:58.972Z,12.87
2022-09-12T02:32:58.974Z,12.87
2022-09-12T02:33:58.970Z,12.80
2022-09-12T02:34:58.982Z,12.83
2022-09-12T02:35:58.969Z,12.82
2022-09-12T02:36:58.972Z,12.73
2022-09-12T02:37:58.971Z,12.78
2022-09-12T02:38:58.969Z,12.64
2022-09-12T02:39:59.023Z,12.72
2022-09-12T02:40:58.965Z,12.75
2022-09-12T02:41:58.964Z,12.72
2022-09-12T02:42:58.964Z,12.86
2022-09-12T02:43:58.961Z,12.68
2022-09-12T02:44:58.970Z,12.90
2022-09-12T02:45:59.004Z,12.85
2022-09-12T02:46:58.961Z,12.85
2022-09-12T02:47:58.959Z,12.80
2022-09-12T02:48:58.960Z,12.87
2022-09-12T02:49:58.960Z,12.73
2022-09-12T02:50:58.961Z,12.76
2022-09-12T02:51:58.965Z,12.76
2022-09-12T02:52:58.953Z,12.65
2022-09-12T02:53:58.950Z,12.76
2022-09-12T02:54:58.954Z,12.70
2022-09-12T02:55:58.955Z,12.75
2022-09-12T02:56:58.948Z,12.70
2022-09-12T02:57:58.949Z,12.73
2022-09-12T02:58:58.946Z,12.76
2022-09-12T02:59:58.942Z,12.76
2022-09-12T03:00:59.033Z,12.90
2022-09-12T03:01:58.985Z,12.73
2022-09-12T03:02:58.944Z,12.67
2022-09-12T03:03:58.943Z,12.80
2022-09-12T03:04:58.942Z,12.82
2022-09-12T03:05:58.938Z,12.79
2022-09-12T03:06:58.942Z,12.82
2022-09-12T03:07:58.937Z,12.73
2022-09-12T03:08:58.941Z,12.78
2022-09-12T03:09:58.937Z,12.65
2022-09-12T03:10:58.937Z,12.61
2022-09-12T03:11:58.932Z,12.62
2022-09-12T03:12:58.931Z,12.54
2022-09-12T03:13:58.937Z,12.61
2022-09-12T03:14:58.932Z,12.60
2022-09-12T03:15:58.926Z,12.62
2022-09-12T03:16:58.932Z,12.75
2022-09-12T03:17:58.944Z,12.76
2022-09-12T03:18:58.924Z,12.85
2022-09-12T03:19:58.921Z,12.80
2022-09-12T03:20:59.021Z,12.79
2022-09-12T03:21:58.921Z,12.67
2022-09-12T03:22:58.929Z,12.80
2022-09-12T03:23:59.177Z,12.76
2022-09-12T03:24:58.920Z,12.75
2022-09-12T03:25:58.917Z,12.72
2022-09-12T03:26:58.918Z,12.62
2022-09-12T03:27:58.919Z,12.70
2022-09-12T03:28:58.917Z,12.73
2022-09-12T03:29:58.917Z,12.73
2022-09-12T03:30:59.001Z,12.76
2022-09-12T03:31:58.914Z,12.75
2022-09-12T03:32:58.908Z,12.70
2022-09-12T03:33:58.924Z,12.67
2022-09-12T03:34:58.911Z,12.70
2022-09-12T03:35:58.909Z,12.78
2022-09-12T03:36:58.915Z,12.62
2022-09-12T03:37:58.906Z,12.64
2022-09-12T03:38:58.902Z,12.61
2022-09-12T03:39:58.922Z,12.64
2022-09-12T03:40:58.902Z,12.65
2022-09-12T03:41:58.899Z,12.62
2022-09-12T03:42:58.898Z,12.61
2022-09-12T03:43:58.902Z,12.54
2022-09-12T03:44:58.899Z,12.57
2022-09-12T03:45:58.935Z,12.47
2022-09-12T03:46:58.897Z,12.36
2022-09-12T03:47:58.893Z,12.37
2022-09-12T03:48:58.895Z,12.40
2022-09-12T03:49:58.914Z,12.39
2022-09-12T03:50:58.890Z,12.42
2022-09-12T03:51:58.886Z,12.39
2022-09-12T03:52:58.891Z,12.37
2022-09-12T03:53:58.885Z,12.35
2022-09-12T03:54:58.888Z,12.37
2022-09-12T03:55:58.907Z,12.57
2022-09-12T03:56:58.890Z,12.62
2022-09-12T03:57:58.883Z,12.64
2022-09-12T03:58:58.881Z,12.75
2022-09-12T03:59:58.878Z,12.73
2022-09-12T04:00:58.891Z,12.75
2022-09-12T04:01:58.944Z,12.75
2022-09-12T04:02:58.879Z,12.72
2022-09-12T04:03:59.693Z,12.67
2022-09-12T04:04:58.873Z,12.70
2022-09-12T04:05:58.888Z,12.73
2022-09-12T04:06:58.873Z,12.65
2022-09-12T04:07:58.868Z,12.60
2022-09-12T04:08:58.871Z,12.58
2022-09-12T04:09:58.866Z,12.57
2022-09-12T04:10:58.869Z,12.58
2022-09-12T04:11:58.864Z,12.46
2022-09-12T04:12:58.864Z,12.55
2022-09-12T04:13:58.861Z,12.58
2022-09-12T04:14:58.861Z,12.60
2022-09-12T04:15:58.859Z,12.65
2022-09-12T04:16:58.860Z,12.72
2022-09-12T04:18:02.407Z,12.75
2022-09-12T04:18:59.374Z,12.76
2022-09-12T04:19:58.856Z,12.79
2022-09-12T04:20:58.859Z,12.73
2022-09-12T04:21:58.875Z,12.76
2022-09-12T04:22:58.854Z,12.70
2022-09-12T04:23:58.852Z,12.73
2022-09-12T04:24:58.848Z,12.67
2022-09-12T04:25:58.848Z,12.60
2022-09-12T04:26:58.846Z,12.61
2022-09-12T04:27:58.843Z,12.60
2022-09-12T04:28:59.095Z,12.65
2022-09-12T04:29:58.846Z,12.55
2022-09-12T04:30:58.870Z,12.49
2022-09-12T04:31:58.842Z,12.49
2022-09-12T04:32:58.838Z,12.37
2022-09-12T04:33:58.839Z,12.35
2022-09-12T04:34:58.836Z,12.40
2022-09-12T04:35:58.840Z,12.43
2022-09-12T04:36:58.836Z,12.45
2022-09-12T04:37:58.852Z,12.50
2022-09-12T04:38:58.836Z,12.35
2022-09-12T04:39:58.894Z,12.37
2022-09-12T04:40:58.843Z,12.32
2022-09-12T04:41:58.830Z,12.42
2022-09-12T04:42:58.826Z,12.32
2022-09-12T04:43:58.833Z,12.35
2022-09-12T04:44:58.822Z,12.47
2022-09-12T04:45:58.862Z,12.47
2022-09-12T04:46:58.821Z,12.46
2022-09-12T04:47:58.824Z,12.46
2022-09-12T04:48:58.817Z,12.61
2022-09-12T04:49:58.821Z,12.62
2022-09-12T04:50:58.815Z,12.62
2022-09-12T04:51:58.816Z,12.62
2022-09-12T04:52:58.812Z,12.79
2022-09-12T04:53:58.832Z,12.78
2022-09-12T04:54:58.812Z,12.64
2022-09-12T04:55:58.813Z,12.76
2022-09-12T04:56:58.809Z,12.70
2022-09-12T04:57:58.809Z,12.79
2022-09-12T04:58:58.806Z,12.76
2022-09-12T04:59:58.804Z,12.86
2022-09-12T05:00:58.846Z,12.80
2022-09-12T05:01:58.865Z,12.73
2022-09-12T05:02:58.803Z,12.73
2022-09-12T05:03:58.800Z,12.73
2022-09-12T05:04:58.797Z,12.75
2022-09-12T05:05:58.798Z,12.64
2022-09-12T05:06:58.799Z,12.62
2022-09-12T05:07:58.798Z,12.58
2022-09-12T05:08:58.792Z,12.62
2022-09-12T05:09:58.817Z,12.60
2022-09-12T05:10:58.793Z,12.72
2022-09-12T05:12:06.064Z,12.61
2022-09-12T05:12:58.788Z,12.65
2022-09-12T05:13:58.791Z,12.64
2022-09-12T05:14:58.787Z,12.65
2022-09-12T05:15:58.788Z,12.61
2022-09-12T05:16:58.821Z,12.58
2022-09-12T05:17:58.785Z,12.64
2022-09-12T05:18:58.779Z,12.58
2022-09-12T05:19:58.783Z,12.61
2022-09-12T05:20:58.782Z,12.61
2022-09-12T05:21:58.782Z,12.65
2022-09-12T05:22:58.774Z,12.64
2022-09-12T05:23:58.775Z,12.68
2022-09-12T05:24:58.775Z,12.64
2022-09-12T05:25:58.797Z,12.70
2022-09-12T05:26:58.769Z,12.61
2022-09-12T05:27:58.770Z,12.73
2022-09-12T05:28:58.767Z,12.70
2022-09-12T05:29:58.783Z,12.73
2022-09-12T05:30:58.798Z,12.72
2022-09-12T05:31:58.763Z,12.78
2022-09-12T05:32:58.763Z,12.73
2022-09-12T05:33:59.111Z,12.75
2022-09-12T05:34:58.761Z,12.78
2022-09-12T05:35:58.760Z,12.73
2022-09-12T05:36:58.760Z,12.86
2022-09-12T05:37:58.782Z,12.82
2022-09-12T05:38:58.762Z,12.82
2022-09-12T05:39:58.803Z,12.91
2022-09-12T05:40:58.752Z,12.94
2022-09-12T05:41:58.781Z,12.94
2022-09-12T05:42:58.755Z,13.01
2022-09-12T05:43:58.757Z,13.09
2022-09-12T05:44:58.749Z,13.16
2022-09-12T05:45:58.814Z,13.25
2022-09-12T05:46:58.749Z,13.22
2022-09-12T05:47:58.746Z,13.28
2022-09-12T05:48:58.743Z,13.28
2022-09-12T05:49:58.742Z,13.42
2022-09-12T05:50:58.742Z,13.46
2022-09-12T05:51:58.739Z,13.52
2022-09-12T05:52:58.736Z,13.59
2022-09-12T05:53:58.742Z,13.49
2022-09-12T05:54:58.744Z,13.60
2022-09-12T05:55:58.734Z,13.65
2022-09-12T05:56:58.732Z,13.67
2022-09-12T05:57:58.753Z,13.70
2022-09-12T05:58:58.734Z,13.70
2022-09-12T05:59:58.738Z,13.77
2022-09-12T06:00:58.758Z,13.75
2022-09-12T06:01:58.796Z,13.77
2022-09-12T06:02:58.733Z,13.77
2022-09-12T06:03:58.729Z,13.83
2022-09-12T06:04:58.722Z,13.90
2022-09-12T06:05:58.722Z,13.86
2022-09-12T06:06:58.720Z,13.89
2022-09-12T06:07:58.747Z,13.90
2022-09-12T06:08:58.724Z,14.05
2022-09-12T06:09:58.727Z,14.03
2022-09-12T06:11:02.152Z,13.97
2022-09-12T06:11:58.724Z,14.08
2022-09-12T06:12:58.713Z,14.22
2022-09-12T06:13:58.734Z,14.22
2022-09-12T06:14:58.712Z,14.18
2022-09-12T06:15:58.714Z,14.20
2022-09-12T06:16:58.763Z,14.23
2022-09-12T06:17:58.713Z,14.26
2022-09-12T06:18:58.708Z,14.33
2022-09-12T06:19:58.709Z,14.32
2022-09-12T06:20:58.707Z,14.40
2022-09-12T06:21:58.710Z,14.47
2022-09-12T06:22:58.704Z,14.54
2022-09-12T06:23:58.709Z,14.53
2022-09-12T06:24:58.705Z,14.54
2022-09-12T06:25:58.703Z,14.59
2022-09-12T06:26:58.701Z,14.63
2022-09-12T06:27:58.701Z,14.63
2022-09-12T06:28:58.704Z,14.63
2022-09-12T06:29:58.721Z,14.62
2022-09-12T06:30:58.726Z,14.60
2022-09-12T06:31:58.698Z,14.60
2022-09-12T06:32:58.696Z,14.60
2022-09-12T06:33:58.695Z,14.70
2022-09-12T06:34:58.694Z,14.72
2022-09-12T06:35:58.694Z,14.73
2022-09-12T06:36:58.692Z,14.68
2022-09-12T06:37:58.696Z,14.72
2022-09-12T06:38:59.044Z,14.72
2022-09-12T06:39:58.769Z,14.82
2022-09-12T06:40:58.690Z,14.88
2022-09-12T06:41:58.693Z,14.94
2022-09-12T06:42:58.689Z,14.86
2022-09-12T06:43:58.691Z,14.94
2022-09-12T06:44:58.689Z,14.89
2022-09-12T06:45:58.754Z,15.02
2022-09-12T06:46:58.697Z,14.97
2022-09-12T06:47:58.691Z,14.97
2022-09-12T06:48:58.685Z,15.07
2022-09-12T06:49:58.686Z,15.06
2022-09-12T06:50:58.686Z,15.07
2022-09-12T06:51:58.684Z,15.10
2022-09-12T06:52:58.678Z,15.06
2022-09-12T06:53:58.685Z,15.03
2022-09-12T06:54:58.680Z,15.17
2022-09-12T06:55:58.679Z,15.15
2022-09-12T06:56:58.680Z,15.11
2022-09-12T06:57:58.680Z,15.19
2022-09-12T06:58:58.676Z,15.14
2022-09-12T06:59:58.677Z,15.24
2022-09-12T07:00:59.201Z,15.29
2022-09-12T07:01:58.768Z,15.21
2022-09-12T07:02:58.676Z,15.36
2022-09-12T07:03:58.675Z,15.29
2022-09-12T07:04:58.674Z,15.36
2022-09-12T07:05:58.675Z,15.36
2022-09-12T07:06:58.671Z,15.36
2022-09-12T07:07:58.675Z,15.37
2022-09-12T07:08:58.674Z,15.43
2022-09-12T07:09:58.679Z,15.44
2022-09-12T07:10:58.682Z,15.47
2022-09-12T07:11:58.674Z,15.43
2022-09-12T07:12:58.671Z,15.54
2022-09-12T07:13:58.676Z,15.52
2022-09-12T07:14:58.670Z,15.51
2022-09-12T07:15:58.669Z,15.47
2022-09-12T07:16:58.721Z,15.58
2022-09-12T07:17:58.687Z,15.61
2022-09-12T07:18:58.672Z,15.65
2022-09-12T07:19:58.670Z,15.72
2022-09-12T07:20:58.677Z,15.67
2022-09-12T07:21:58.941Z,15.73
2022-09-12T07:22:58.676Z,15.75
2022-09-12T07:23:58.663Z,15.72
2022-09-12T07:24:58.663Z,15.80
2022-09-12T07:25:58.665Z,15.79
2022-09-12T07:26:58.661Z,15.84
2022-09-12T07:27:58.661Z,15.75
2022-09-12T07:29:18.660Z,15.80
2022-09-12T07:29:58.665Z,15.77
2022-09-12T07:30:58.730Z,15.76
2022-09-12T07:31:58.662Z,15.83
2022-09-12T07:32:58.661Z,15.82
2022-09-12T07:33:58.680Z,15.82
2022-09-12T07:34:58.661Z,15.84
2022-09-12T07:35:58.666Z,15.86
2022-09-12T07:36:58.666Z,15.86
2022-09-12T07:37:58.662Z,15.80
2022-09-12T07:38:59.012Z,15.84
2022-09-12T07:39:58.805Z,15.91
2022-09-12T07:40:58.657Z,15.92
2022-09-12T07:41:58.662Z,15.94
2022-09-12T07:42:58.661Z,15.84
2022-09-12T07:43:58.656Z,15.88
2022-09-12T07:44:58.655Z,15.97
2022-09-12T07:45:58.677Z,15.91
2022-09-12T07:46:58.660Z,15.92
2022-09-12T07:47:58.660Z,15.95
2022-09-12T07:48:58.654Z,15.97
2022-09-12T07:49:58.700Z,15.97
2022-09-12T07:50:58.654Z,15.92
2022-09-12T07:51:58.655Z,15.95
2022-09-12T07:52:58.655Z,16.09
2022-09-12T07:53:58.655Z,16.12
2022-09-12T07:54:58.654Z,16.12
2022-09-12T07:55:58.652Z,16.21
2022-09-12T07:56:58.656Z,16.16
2022-09-12T07:57:58.654Z,16.17
2022-09-12T07:58:58.666Z,16.23
2022-09-12T07:59:58.653Z,16.23
2022-09-12T08:00:58.663Z,16.28
2022-09-12T08:01:58.653Z,16.28
2022-09-12T08:02:58.661Z,16.32
2022-09-12T08:03:58.659Z,16.28
2022-09-12T08:04:58.653Z,16.31
2022-09-12T08:05:58.674Z,16.28
2022-09-12T08:06:58.660Z,16.31
2022-09-12T08:07:58.658Z,16.29
2022-09-12T08:08:58.658Z,16.31
2022-09-12T08:09:58.657Z,16.29
2022-09-12T08:10:58.655Z,16.26
2022-09-12T08:11:58.653Z,16.35
2022-09-12T08:12:58.651Z,16.23
2022-09-12T08:13:58.654Z,16.32
2022-09-12T08:14:58.652Z,16.35
2022-09-12T08:15:58.711Z,16.31
2022-09-12T08:16:58.650Z,16.31
2022-09-12T08:17:58.655Z,16.29
2022-09-12T08:18:58.651Z,16.38
2022-09-12T08:19:58.653Z,16.43
2022-09-12T08:20:58.651Z,16.46
2022-09-12T08:21:58.681Z,16.47
2022-09-12T08:22:58.655Z,16.56
2022-09-12T08:23:58.666Z,16.49
2022-09-12T08:24:58.650Z,16.53
2022-09-12T08:25:58.655Z,16.58
2022-09-12T08:26:58.654Z,16.61
2022-09-12T08:27:58.658Z,16.66
2022-09-12T08:28:58.652Z,16.66
2022-09-12T08:29:58.658Z,16.71
2022-09-12T08:30:58.736Z,16.71
2022-09-12T08:31:58.657Z,16.81
2022-09-12T08:32:58.655Z,16.81
2022-09-12T08:33:58.656Z,16.87
2022-09-12T08:34:58.653Z,16.86
2022-09-12T08:35:58.654Z,16.84
2022-09-12T08:36:58.656Z,16.84
2022-09-12T08:37:58.674Z,16.90
2022-09-12T08:39:00.228Z,16.90
2022-09-12T08:39:58.696Z,16.90
2022-09-12T08:40:58.658Z,16.86
2022-09-12T08:41:58.679Z,16.86
2022-09-12T08:42:58.655Z,16.96
2022-09-12T08:43:58.670Z,16.97
2022-09-12T08:44:58.663Z,17.01
2022-09-12T08:45:58.685Z,17.01
2022-09-12T08:46:58.655Z,17.04
2022-09-12T08:47:58.655Z,17.12
2022-09-12T08:48:58.658Z,17.20
2022-09-12T08:49:58.658Z,17.16
2022-09-12T08:50:58.667Z,17.19
2022-09-12T08:51:58.656Z,17.23
2022-09-12T08:52:58.825Z,17.27
2022-09-12T08:53:58.678Z,17.29
2022-09-12T08:54:58.661Z,17.38
2022-09-12T08:55:58.655Z,17.36
2022-09-12T08:56:58.668Z,17.41
2022-09-12T08:57:58.660Z,17.51
2022-09-12T08:58:58.674Z,17.51
2022-09-12T08:59:58.656Z,17.54
2022-09-12T09:00:58.658Z,17.51
2022-09-12T09:01:58.774Z,17.63
2022-09-12T09:02:58.744Z,17.46
2022-09-12T09:03:58.659Z,17.52
2022-09-12T09:04:58.660Z,17.49
2022-09-12T09:05:58.665Z,17.52
2022-09-12T09:06:58.666Z,17.56
2022-09-12T09:07:58.659Z,17.63
2022-09-12T09:08:58.662Z,17.63
2022-09-12T09:09:58.681Z,17.68
2022-09-12T09:10:58.667Z,17.68
2022-09-12T09:11:58.661Z,17.67
2022-09-12T09:12:58.677Z,17.74
2022-09-12T09:14:01.906Z,17.82
2022-09-12T09:14:58.672Z,17.78
2022-09-12T09:15:58.692Z,17.79
2022-09-12T09:16:58.692Z,17.90
2022-09-12T09:17:58.668Z,17.87
2022-09-12T09:18:58.668Z,17.83
2022-09-12T09:19:58.664Z,17.97
2022-09-12T09:20:58.669Z,17.86
2022-09-12T09:21:58.671Z,17.94
2022-09-12T09:22:58.667Z,17.98
2022-09-12T09:23:58.667Z,17.98
2022-09-12T09:24:58.668Z,18.00
2022-09-12T09:25:58.693Z,17.97
2022-09-12T09:26:58.670Z,17.94
2022-09-12T09:27:58.667Z,17.94
2022-09-12T09:28:58.671Z,18.05
2022-09-12T09:29:58.668Z,18.08
2022-09-12T09:30:58.713Z,18.11
2022-09-12T09:31:58.670Z,18.11
2022-09-12T09:32:58.675Z,18.08
2022-09-12T09:33:58.677Z,18.10
2022-09-12T09:34:58.675Z,18.13
2022-09-12T09:35:58.671Z,18.07
2022-09-12T09:36:58.674Z,18.11
2022-09-12T09:37:58.885Z,18.11
2022-09-12T09:38:58.675Z,18.11
2022-09-12T09:39:58.706Z,18.11
2022-09-12T09:40:58.677Z,18.01
2022-09-12T09:41:58.700Z,18.07
2022-09-12T09:42:58.682Z,18.10
2022-09-12T09:43:58.852Z,18.00
2022-09-12T09:44:58.680Z,18.08
2022-09-12T09:45:58.698Z,18.13
2022-09-12T09:46:58.682Z,18.15
2022-09-12T09:47:58.680Z,18.05
2022-09-12T09:48:58.684Z,18.07
2022-09-12T09:49:58.683Z,18.11
2022-09-12T09:50:58.681Z,18.05
2022-09-12T09:52:00.515Z,18.13
2022-09-12T09:52:58.684Z,18.15
2022-09-12T09:53:58.682Z,18.11
2022-09-12T09:54:58.688Z,18.16
2022-09-12T09:55:58.683Z,18.19
2022-09-12T09:56:58.688Z,18.22
2022-09-12T09:57:58.704Z,18.28
2022-09-12T09:58:58.686Z,18.22
2022-09-12T09:59:58.687Z,18.29
2022-09-12T10:00:58.690Z,18.31
2022-09-12T10:01:58.691Z,18.31
2022-09-12T10:02:58.770Z,18.28
2022-09-12T10:03:58.688Z,18.33
2022-09-12T10:04:58.693Z,18.38
2022-09-12T10:05:58.689Z,18.41
2022-09-12T10:06:58.697Z,18.44
2022-09-12T10:07:58.689Z,18.44
2022-09-12T10:08:58.696Z,18.44
2022-09-12T10:09:58.693Z,18.44
2022-09-12T10:10:58.698Z,18.43
2022-09-12T10:11:58.694Z,18.40
2022-09-12T10:12:58.697Z,18.45
2022-09-12T10:13:58.721Z,18.43
2022-09-12T10:14:58.698Z,18.45
2022-09-12T10:15:58.812Z,18.47
2022-09-12T10:16:58.699Z,18.47
2022-09-12T10:17:58.699Z,18.53
2022-09-12T10:18:58.710Z,18.53
2022-09-12T10:20:20.007Z,18.56
2022-09-12T10:20:58.726Z,18.55
2022-09-12T10:21:58.705Z,18.65
2022-09-12T10:22:58.705Z,18.59
2022-09-12T10:23:58.706Z,18.62
2022-09-12T10:24:58.705Z,18.60
2022-09-12T10:25:58.709Z,18.60
2022-09-12T10:26:58.709Z,18.62
2022-09-12T10:27:58.704Z,18.66
2022-09-12T10:28:58.715Z,18.63
2022-09-12T10:29:58.728Z,18.73
2022-09-12T10:30:58.764Z,18.71
2022-09-12T10:31:58.710Z,18.73
2022-09-12T10:32:58.709Z,18.73
2022-09-12T10:33:58.711Z,18.73
2022-09-12T10:34:58.727Z,18.63
2022-09-12T10:35:58.711Z,18.62
2022-09-12T10:36:58.715Z,18.65
2022-09-12T10:37:58.712Z,18.60
2022-09-12T10:38:58.714Z,18.68
2022-09-12T10:39:58.750Z,18.62
2022-09-12T10:40:58.727Z,18.68
2022-09-12T10:41:58.715Z,18.80
2022-09-12T10:42:58.716Z,18.78
2022-09-12T10:43:58.967Z,18.83
2022-09-12T10:44:58.719Z,18.81
2022-09-12T10:45:58.840Z,18.77
2022-09-12T10:46:58.726Z,18.75
2022-09-12T10:47:58.720Z,18.77
2022-09-12T10:48:58.723Z,18.80
2022-09-12T10:49:58.722Z,18.80
2022-09-12T10:50:58.730Z,18.86
2022-09-12T10:51:58.731Z,18.89
2022-09-12T10:52:58.727Z,18.89
2022-09-12T10:53:58.726Z,18.80
2022-09-12T10:54:58.730Z,18.80
2022-09-12T10:55:58.727Z,18.81
2022-09-12T10:56:58.733Z,18.86
2022-09-12T10:57:58.734Z,18.81
2022-09-12T10:58:58.749Z,18.95
2022-09-12T10:59:58.731Z,18.95
2022-09-12T11:00:58.734Z,18.89
2022-09-12T11:01:58.754Z,18.96
2022-09-12T11:02:58.734Z,18.90
2022-09-12T11:03:58.734Z,18.99
2022-09-12T11:04:58.737Z,18.89
2022-09-12T11:05:58.736Z,19.00
2022-09-12T11:06:58.739Z,19.08
2022-09-12T11:07:58.736Z,19.12
2022-09-12T11:08:58.745Z,19.18
2022-09-12T11:09:58.744Z,19.26
2022-09-12T11:10:58.744Z,19.27
2022-09-12T11:11:58.741Z,19.31
2022-09-12T11:12:58.743Z,19.29
2022-09-12T11:13:58.742Z,19.34
2022-09-12T11:14:58.752Z,19.31
2022-09-12T11:15:58.812Z,19.37
2022-09-12T11:16:58.752Z,19.33
2022-09-12T11:17:58.769Z,19.39
2022-09-12T11:18:58.749Z,19.52
2022-09-12T11:19:58.748Z,19.41
2022-09-12T11:20:58.751Z,19.48
2022-09-12T11:21:58.749Z,19.44
2022-09-12T11:22:58.754Z,19.45
2022-09-12T11:23:58.752Z,19.45
2022-09-12T11:24:58.752Z,19.47
2022-09-12T11:25:58.757Z,19.45
2022-09-12T11:26:58.769Z,19.47
2022-09-12T11:27:58.772Z,19.45
2022-09-12T11:28:58.767Z,19.45
2022-09-12T11:29:58.760Z,19.47
2022-09-12T11:30:58.832Z,19.40
2022-09-12T11:31:58.758Z,19.36
2022-09-12T11:32:58.768Z,19.40
2022-09-12T11:33:58.780Z,19.37
2022-09-12T11:34:58.770Z,19.37
2022-09-12T11:35:58.762Z,19.41
2022-09-12T11:36:58.776Z,19.41
2022-09-12T11:37:58.766Z,19.47
2022-09-12T11:38:58.771Z,19.37
2022-09-12T11:39:58.805Z,19.48
2022-09-12T11:40:58.781Z,19.45
2022-09-12T11:41:58.773Z,19.45
2022-09-12T11:42:58.774Z,19.52
2022-09-12T11:43:58.772Z,19.47
2022-09-12T11:44:58.788Z,19.48
2022-09-12T11:45:58.801Z,19.54
2022-09-12T11:46:58.787Z,19.64
2022-09-12T11:47:58.777Z,19.56
2022-09-12T11:48:58.781Z,19.56
2022-09-12T11:49:58.801Z,19.55
2022-09-12T11:50:58.782Z,19.52
2022-09-12T11:51:58.784Z,19.58
2022-09-12T11:52:58.786Z,19.59
2022-09-12T11:53:58.784Z,19.55
2022-09-12T11:54:58.787Z,19.62
2022-09-12T11:55:58.785Z,19.54
2022-09-12T11:56:58.788Z,19.70
2022-09-12T11:57:58.791Z,19.67
2022-09-12T11:58:58.803Z,19.71
2022-09-12T11:59:58.790Z,19.69
2022-09-12T12:00:58.797Z,19.84
2022-09-12T12:01:58.831Z,19.76
2022-09-12T12:02:58.796Z,19.73
2022-09-12T12:03:58.872Z,19.74
2022-09-12T12:04:58.797Z,19.76
2022-09-12T12:05:58.816Z,19.85
2022-09-12T12:06:58.813Z,19.70
2022-09-12T12:07:58.805Z,19.67
2022-09-12T12:08:58.803Z,19.81
2022-09-12T12:09:58.799Z,19.73
2022-09-12T12:10:58.817Z,19.73
2022-09-12T12:11:58.816Z,19.67
2022-09-12T12:12:58.817Z,19.70
2022-09-12T12:13:58.806Z,19.70
2022-09-12T12:14:58.807Z,19.77
2022-09-12T12:15:58.849Z,19.71
2022-09-12T12:16:58.819Z,19.73
2022-09-12T12:17:58.809Z,19.77
2022-09-12T12:18:58.813Z,19.84
2022-09-12T12:20:03.548Z,19.88
2022-09-12T12:20:58.817Z,19.82
2022-09-12T12:21:58.846Z,19.89
2022-09-12T12:22:58.817Z,19.86
2022-09-12T12:23:58.814Z,19.91
2022-09-12T12:24:58.817Z,19.91
2022-09-12T12:25:58.820Z,19.94
2022-09-12T12:26:58.822Z,19.92
2022-09-12T12:27:58.820Z,19.99
2022-09-12T12:28:58.825Z,19.91
2022-09-12T12:29:58.842Z,19.91
2022-09-12T12:30:58.861Z,19.94
2022-09-12T12:31:58.826Z,19.89
2022-09-12T12:32:58.828Z,19.91
2022-09-12T12:33:58.826Z,19.82
2022-09-12T12:34:58.830Z,19.84
2022-09-12T12:35:58.828Z,19.88
2022-09-12T12:36:58.834Z,19.82
2022-09-12T12:37:58.851Z,19.84
2022-09-12T12:38:58.835Z,19.76
2022-09-12T12:39:58.846Z,19.86
2022-09-12T12:40:58.839Z,19.86
2022-09-12T12:41:58.839Z,19.81
2022-09-12T12:42:58.839Z,19.92
2022-09-12T12:43:58.839Z,19.92
2022-09-12T12:44:58.852Z,19.81
2022-09-12T12:45:58.873Z,19.92
2022-09-12T12:46:58.846Z,19.86
2022-09-12T12:47:58.878Z,19.94
2022-09-12T12:48:58.849Z,19.86
2022-09-12T12:49:58.848Z,19.94
2022-09-12T12:50:58.851Z,19.94
2022-09-12T12:51:58.853Z,19.81
2022-09-12T12:52:58.864Z,19.81